Time;durP1;ratioP1;P1;durP2;ratioP2;P2;SDS_P1;SDS_P2;PMS_P1;PMS_P2;Temp;Humidity;BMP_temperature;BMP_pressure;BME280_temperature;BME280_humidity;BME280_pressure;Samples;Min_cycle;Max_cycle;Signal;HPM_P1;HPM_P2
2023/06/04 00:02:11;;;;;;;;;5.00;5.00;;;;;21.50;39.61;101249.75;6246576;22;45451;-73
2023/06/04 00:04:36;;;;;;;;;5.00;5.00;;;;;21.49;39.63;101256.16;6246083;22;45365;-73
2023/06/04 00:07:02;;;;;;;;;6.50;6.50;;;;;21.40;39.92;101244.06;6246076;22;45341;-72
2023/06/04 00:09:27;;;;;;;;;7.00;5.50;;;;;21.23;40.26;101214.47;6246192;22;45340;-73
2023/06/04 00:11:52;;;;;;;;;7.00;5.25;;;;;21.38;40.00;101247.84;6246500;22;45441;-73
2023/06/04 00:14:18;;;;;;;;;2.50;2.50;;;;;21.37;40.19;101255.13;6245855;22;45400;-73
2023/06/04 00:16:43;;;;;;;;;5.50;5.50;;;;;21.32;40.36;101241.00;6246564;22;45273;-72
2023/06/04 00:19:09;;;;;;;;;5.00;5.00;;;;;21.33;40.34;101248.16;6246128;22;45297;-73
2023/06/04 00:21:35;;;;;;;;;6.00;6.00;;;;;21.34;40.17;101252.63;6244926;22;45228;-73
2023/06/04 00:24:01;;;;;;;;;4.75;4.75;;;;;21.21;39.88;101243.59;6245936;22;45443;-72
2023/06/04 00:26:27;;;;;;;;;4.75;3.75;;;;;21.26;40.01;101257.72;6246195;22;45266;-73
2023/06/04 00:28:54;;;;;;;;;5.00;5.00;;;;;21.23;39.87;101256.09;6245889;22;45423;-72
2023/06/04 00:31:21;;;;;;;;;7.75;5.50;;;;;21.11;40.23;101251.50;6246461;22;45322;-73
2023/06/04 00:33:46;;;;;;;;;5.00;4.75;;;;;21.01;39.93;101256.69;6244414;22;45615;-73
2023/06/04 00:36:12;;;;;;;;;5.00;5.00;;;;;20.99;40.55;101263.19;6246551;22;46175;-72
2023/06/04 00:38:37;;;;;;;;;6.25;5.00;;;;;20.94;40.71;101268.94;6245891;22;45357;-73
2023/06/04 00:41:02;;;;;;;;;5.00;5.00;;;;;20.87;40.76;101251.34;6245706;22;45302;-72
2023/06/04 00:43:27;;;;;;;;;5.75;5.75;;;;;20.89;40.55;101255.66;6245827;22;45462;-72
2023/06/04 00:45:54;;;;;;;;;5.75;4.75;;;;;20.99;40.29;101269.50;6246568;22;46786;-73
2023/06/04 00:48:20;;;;;;;;;4.00;4.00;;;;;20.91;40.37;101263.72;6246223;22;45471;-72
2023/06/04 00:50:47;;;;;;;;;4.50;4.50;;;;;20.90;40.74;101262.00;6246760;22;45259;-73
2023/06/04 00:53:12;;;;;;;;;8.00;5.00;;;;;20.86;40.44;101260.44;6246591;22;45262;-72
2023/06/04 00:55:38;;;;;;;;;6.00;3.75;;;;;20.80;40.42;101261.72;6246454;22;45271;-72
2023/06/04 00:58:06;;;;;;;;;4.75;4.75;;;;;20.75;40.66;101250.31;6246122;22;45509;-73
2023/06/04 01:00:32;;;;;;;;;5.00;5.00;;;;;20.62;40.53;101233.97;6243284;22;45446;-73
2023/06/04 01:03:02;;;;;;;;;5.50;5.50;;;;;20.76;40.16;101267.47;6246250;22;45537;-72
2023/06/04 01:06:14;;;;;;;;;2.25;2.00;;;;;20.72;40.93;101264.94;6244280;22;46102;-72
2023/06/04 01:08:43;;;;;;;;;6.75;5.00;;;;;20.70;40.63;101266.03;6189386;22;45272;-72
2023/06/04 01:11:08;;;;;;;;;3.25;3.25;;;;;20.69;40.69;101264.28;6246056;22;45334;-72
2023/06/04 01:13:33;;;;;;;;;4.50;4.50;;;;;20.55;41.15;101248.91;6246427;22;45224;-73
2023/06/04 01:15:59;;;;;;;;;6.00;5.00;;;;;20.66;41.16;101270.78;6245485;22;51977;-72
2023/06/04 01:18:28;;;;;;;;;8.00;5.00;;;;;20.60;40.98;101262.16;6245612;22;45299;-72
2023/06/04 01:21:07;;;;;;;;;6.50;4.75;;;;;20.54;40.66;101263.44;6244410;22;45330;-72
2023/06/04 01:23:35;;;;;;;;;6.00;4.50;;;;;20.53;41.24;101268.00;6243776;22;45378;-72
2023/06/04 01:26:03;;;;;;;;;4.50;4.50;;;;;20.49;41.40;101263.72;6243810;22;46428;-72
2023/06/04 01:28:29;;;;;;;;;5.00;5.00;;;;;20.48;40.88;101263.81;6244280;22;45460;-72
2023/06/04 01:30:56;;;;;;;;;5.00;4.00;;;;;20.46;41.11;101271.19;6244290;22;45252;-72
2023/06/04 01:33:22;;;;;;;;;3.25;3.25;;;;;20.38;41.13;101254.56;6245902;22;45262;-73
2023/06/04 01:35:47;;;;;;;;;5.75;5.00;;;;;20.33;41.19;101252.16;6246106;22;45270;-72
2023/06/04 01:38:13;;;;;;;;;3.00;1.50;;;;;20.39;41.28;101256.31;6269792;22;45258;-72
2023/06/04 01:40:39;;;;;;;;;6.00;6.00;;;;;20.32;41.13;101255.84;6269922;22;45338;-72
2023/06/04 01:43:04;;;;;;;;;6.00;5.00;;;;;20.33;41.34;101263.00;6245865;22;45518;-73
2023/06/04 01:45:30;;;;;;;;;10.00;6.00;;;;;20.32;41.31;101267.56;6246148;22;45367;-72
2023/06/04 01:47:56;;;;;;;;;4.75;4.75;;;;;20.23;41.66;101257.31;6245722;22;45338;-72
2023/06/04 01:50:22;;;;;;;;;8.00;6.00;;;;;20.20;41.25;101256.63;6246279;22;45438;-72
2023/06/04 01:52:47;;;;;;;;;4.50;4.50;;;;;20.14;41.82;101258.75;6247184;22;45338;-72
2023/06/04 01:55:14;;;;;;;;;5.75;5.00;;;;;20.24;41.47;101278.03;6245090;22;47957;-72
2023/06/04 01:57:41;;;;;;;;;6.00;6.00;;;;;20.16;41.66;101267.69;6246605;22;45323;-72
2023/06/04 02:00:09;;;;;;;;;5.25;5.25;;;;;20.24;41.60;101282.56;6247195;22;45184;-72
2023/06/04 02:02:38;;;;;;;;;1.75;0.50;;;;;20.21;41.44;101275.50;6246753;22;45462;-72
2023/06/04 02:05:08;;;;;;;;;7.25;4.50;;;;;20.15;41.70;101273.22;6247247;22;45584;-72
2023/06/04 02:07:35;;;;;;;;;4.00;4.00;;;;;20.10;41.75;101264.50;6246757;22;45446;-72
2023/06/04 02:10:00;;;;;;;;;5.75;4.25;;;;;20.17;41.41;101282.09;6247312;22;45303;-72
2023/06/04 02:12:25;;;;;;;;;4.50;4.50;;;;;20.15;41.76;101287.63;6247146;22;45366;-72
2023/06/04 02:14:51;;;;;;;;;5.25;5.00;;;;;20.13;41.65;101285.97;6246972;22;46102;-72
2023/06/04 02:17:16;;;;;;;;;4.00;4.00;;;;;20.07;41.46;101276.41;6247046;22;45353;-72
2023/06/04 02:19:49;;;;;;;;;3.00;3.00;;;;;20.07;41.50;101280.94;6245563;22;45427;-72
2023/06/04 02:22:19;;;;;;;;;6.50;5.00;;;;;19.97;41.68;101267.97;6246937;22;45287;-72
2023/06/04 02:24:45;;;;;;;;;5.00;3.00;;;;;19.91;41.66;101268.38;6247094;22;45991;-72
2023/06/04 02:27:12;;;;;;;;;7.00;5.00;;;;;19.94;41.73;101281.72;6246829;22;45482;-72
2023/06/04 02:29:39;;;;;;;;;4.75;4.25;;;;;19.88;41.92;101275.81;6247272;22;45196;-72
2023/06/04 02:32:05;;;;;;;;;5.50;4.00;;;;;19.84;41.91;101274.28;6247027;22;45347;-72
2023/06/04 02:34:30;;;;;;;;;3.00;3.00;;;;;19.89;41.75;101285.69;6246775;22;46267;-72
2023/06/04 02:36:56;;;;;;;;;5.25;5.00;;;;;19.85;41.58;101279.59;6244396;22;45362;-72
2023/06/04 02:39:21;;;;;;;;;4.00;4.00;;;;;19.78;42.01;101272.84;6247413;22;45408;-72
2023/06/04 02:41:46;;;;;;;;;5.00;4.00;;;;;19.80;42.36;101279.03;6246093;22;45369;-72
2023/06/04 02:44:12;;;;;;;;;3.00;3.00;;;;;19.73;42.24;101274.91;6246873;22;50496;-72
2023/06/04 02:46:38;;;;;;;;;5.75;5.00;;;;;19.70;41.96;101270.56;6246955;22;45333;-72
2023/06/04 02:49:04;;;;;;;;;5.25;5.00;;;;;19.72;42.00;101287.59;6247140;22;45435;-72
2023/06/04 02:51:29;;;;;;;;;4.00;4.00;;;;;19.52;41.75;101264.44;6247455;22;45197;-72
2023/06/04 02:53:55;;;;;;;;;6.00;3.75;;;;;19.64;42.31;101284.47;6247100;22;45842;-72
2023/06/04 02:56:21;;;;;;;;;4.75;4.75;;;;;19.61;42.04;101282.84;6247008;22;45308;-72
2023/06/04 02:58:51;;;;;;;;;4.50;4.00;;;;;19.63;42.30;101291.75;6246698;22;45264;-72
2023/06/04 03:01:23;;;;;;;;;4.00;3.00;;;;;19.60;42.15;101291.94;6245779;22;45463;-72
2023/06/04 03:03:49;;;;;;;;;4.25;4.00;;;;;19.60;42.19;101289.22;6245791;22;46049;-72
2023/06/04 03:06:16;;;;;;;;;4.00;4.00;;;;;19.54;42.15;101280.59;6246976;22;45326;-72
2023/06/04 03:08:42;;;;;;;;;4.00;3.25;;;;;19.52;42.24;101278.00;6246741;22;45309;-72
2023/06/04 03:11:08;;;;;;;;;4.25;3.75;;;;;19.42;42.00;101264.13;6246758;22;45266;-72
2023/06/04 03:13:33;;;;;;;;;6.50;4.25;;;;;19.41;42.51;101250.69;6245014;22;47298;-72
2023/06/04 03:16:02;;;;;;;;;4.00;4.00;;;;;19.54;42.12;101286.88;6246077;22;45264;-72
2023/06/04 03:18:28;;;;;;;;;4.00;4.00;;;;;19.46;42.09;101274.78;6244928;22;45273;-72
2023/06/04 03:20:53;;;;;;;;;3.50;3.50;;;;;19.49;42.42;101283.59;6246627;22;45481;-72
2023/06/04 03:23:20;;;;;;;;;5.00;5.00;;;;;19.46;42.41;101286.47;6246726;22;45487;-72
2023/06/04 03:25:45;;;;;;;;;2.75;2.25;;;;;19.41;42.44;101269.63;6246835;22;45299;-72
2023/06/04 03:28:11;;;;;;;;;4.00;4.00;;;;;19.43;42.52;101265.91;6246564;22;45340;-72
2023/06/04 03:30:36;;;;;;;;;4.75;3.00;;;;;19.43;42.60;101268.59;6246961;22;45355;-72
2023/06/04 03:33:02;;;;;;;;;4.00;3.00;;;;;19.33;42.52;101253.00;6246929;22;46266;-72
2023/06/04 03:35:28;;;;;;;;;4.50;4.25;;;;;19.33;42.96;101255.69;6246386;22;45314;-72
2023/06/04 03:37:53;;;;;;;;;4.50;3.00;;;;;19.36;42.48;101260.94;6247063;22;45416;-72
2023/06/04 03:40:18;;;;;;;;;3.50;3.50;;;;;19.41;42.55;101275.06;6246631;22;50632;-72
2023/06/04 03:42:44;;;;;;;;;2.75;2.75;;;;;19.35;42.62;101265.50;6245385;22;45220;-72
2023/06/04 03:45:09;;;;;;;;;4.75;4.00;;;;;19.32;42.50;101267.50;6244278;22;45272;-72
2023/06/04 03:47:35;;;;;;;;;4.00;4.00;;;;;19.34;42.50;101274.56;6246244;22;45332;-72
2023/06/04 03:50:00;;;;;;;;;4.25;4.00;;;;;19.33;42.39;101270.13;6244320;22;45481;-72
2023/06/04 03:52:26;;;;;;;;;3.00;3.00;;;;;19.28;42.44;101264.13;6246589;22;46618;-72
2023/06/04 03:54:52;;;;;;;;;4.25;4.25;;;;;19.39;42.73;101285.97;6246749;22;45300;-72
2023/06/04 03:57:17;;;;;;;;;5.25;4.00;;;;;19.31;42.28;101282.91;6244800;22;45225;-72
2023/06/04 03:59:42;;;;;;;;;3.00;3.00;;;;;19.29;42.65;101284.78;6246795;22;45693;-71
2023/06/04 04:02:08;;;;;;;;;6.25;3.00;;;;;19.31;42.36;101293.72;6246622;22;45309;-72
2023/06/04 04:04:33;;;;;;;;;3.00;3.00;;;;;19.23;42.45;101274.38;6245346;22;46259;-72
2023/06/04 04:07:00;;;;;;;;;4.50;4.50;;;;;19.24;42.38;101290.50;6246728;22;45381;-72
2023/06/04 04:09:25;;;;;;;;;3.50;3.00;;;;;19.31;42.51;101306.34;6246536;22;45442;-72
2023/06/04 04:11:51;;;;;;;;;3.75;3.75;;;;;19.27;42.47;101302.13;6246618;22;46257;-72
2023/06/04 04:14:16;;;;;;;;;3.75;3.50;;;;;19.18;42.41;101295.41;6246075;22;45353;-72
2023/06/04 04:16:42;;;;;;;;;3.00;3.00;;;;;19.16;42.63;101292.81;6246929;22;45695;-71
2023/06/04 04:19:07;;;;;;;;;5.00;4.00;;;;;19.15;42.67;101292.91;6246948;22;45982;-72
2023/06/04 04:21:37;;;;;;;;;3.75;3.75;;;;;19.10;42.87;101292.31;6246142;22;46381;-72
2023/06/04 04:24:03;;;;;;;;;4.25;4.00;;;;;19.20;42.57;101307.88;6244552;22;45593;-71
2023/06/04 04:26:28;;;;;;;;;3.50;3.00;;;;;19.19;42.87;101314.25;6246829;22;45256;-71
2023/06/04 04:28:57;;;;;;;;;3.00;3.00;;;;;19.10;42.39;101292.31;6246266;22;45499;-71
2023/06/04 04:31:36;;;;;;;;;3.50;3.00;;;;;19.12;42.53;101304.75;6246266;22;46219;-72
2023/06/04 04:34:08;;;;;;;;;4.00;2.50;;;;;19.07;42.13;101296.03;6246743;22;45451;-72
2023/06/04 04:36:34;;;;;;;;;3.00;3.00;;;;;19.10;42.26;101306.69;6246441;22;45442;-72
2023/06/04 04:39:00;;;;;;;;;3.25;3.25;;;;;19.09;42.66;101307.63;6244646;22;45304;-72
2023/06/04 04:41:25;;;;;;;;;3.00;3.00;;;;;18.93;42.22;101296.88;6246337;22;45399;-71
2023/06/04 04:43:53;;;;;;;;;3.75;3.75;;;;;18.87;42.16;101302.63;6246059;22;45283;-71
2023/06/04 04:46:18;;;;;;;;;3.25;3.00;;;;;18.83;42.33;101317.31;6246592;22;45264;-72
2023/06/04 04:48:43;;;;;;;;;4.25;3.50;;;;;18.73;42.65;101306.09;6246376;22;45361;-72
2023/06/04 04:51:09;;;;;;;;;4.00;4.00;;;;;18.63;42.48;101300.34;6245993;22;46746;-72
2023/06/04 04:53:35;;;;;;;;;4.00;3.25;;;;;18.70;42.89;101312.56;6270460;22;45569;-72
2023/06/04 04:56:00;;;;;;;;;4.00;3.00;;;;;18.66;42.64;101310.09;6246557;22;45308;-72
2023/06/04 04:58:25;;;;;;;;;2.75;2.75;;;;;18.72;42.79;101315.16;6246294;22;45422;-72
2023/06/04 05:00:51;;;;;;;;;1.75;1.75;;;;;18.71;43.19;101313.44;6245621;22;46169;-71
2023/06/04 05:03:16;;;;;;;;;4.25;3.75;;;;;18.66;42.92;101307.41;6246532;22;45308;-72
2023/06/04 05:05:42;;;;;;;;;4.00;3.00;;;;;18.55;42.77;101299.06;6246582;22;45307;-72
2023/06/04 05:08:08;;;;;;;;;4.25;3.25;;;;;18.56;43.13;101309.78;6245964;22;45424;-72
2023/06/04 05:10:35;;;;;;;;;3.00;3.00;;;;;18.51;43.38;101306.47;6246109;22;45339;-72
2023/06/04 05:13:01;;;;;;;;;2.00;2.00;;;;;18.65;43.20;101327.31;6270094;22;46451;-71
2023/06/04 05:15:27;;;;;;;;;4.00;4.00;;;;;18.58;42.76;101317.81;6244426;22;45326;-72
2023/06/04 05:17:53;;;;;;;;;3.75;2.75;;;;;18.54;42.70;101322.50;6244195;22;45410;-72
2023/06/04 05:20:20;;;;;;;;;3.00;3.00;;;;;18.50;43.08;101327.22;6246016;22;45288;-71
2023/06/04 05:22:46;;;;;;;;;2.75;2.75;;;;;18.45;43.13;101323.91;6246157;22;45324;-71
2023/06/04 05:25:11;;;;;;;;;5.00;3.00;;;;;18.43;43.50;101325.81;6246548;22;45353;-71
2023/06/04 05:27:37;;;;;;;;;3.50;3.50;;;;;18.52;43.29;101333.38;6246865;22;45397;-71
2023/06/04 05:30:03;;;;;;;;;5.50;4.25;;;;;18.44;43.03;101318.56;6247486;22;45324;-71
2023/06/04 05:32:30;;;;;;;;;3.00;3.00;;;;;18.49;43.41;101330.88;6247045;22;45457;-71
2023/06/04 05:34:57;;;;;;;;;2.50;2.50;;;;;18.41;43.03;101324.16;6247660;22;45257;-71
2023/06/04 05:37:23;;;;;;;;;5.25;3.00;;;;;18.47;43.04;101331.91;6246976;22;45504;-72
2023/06/04 05:39:49;;;;;;;;;4.25;2.75;;;;;18.20;43.07;101286.56;6246993;22;45585;-71
2023/06/04 05:42:15;;;;;;;;;3.50;3.50;;;;;18.47;43.49;101327.38;6247007;22;45366;-72
2023/06/04 05:44:40;;;;;;;;;3.00;3.00;;;;;18.50;43.41;101343.44;6247757;22;45256;-71
2023/06/04 05:47:06;;;;;;;;;3.00;3.00;;;;;18.37;43.19;101320.75;6247281;22;45384;-71
2023/06/04 05:49:33;;;;;;;;;3.00;2.50;;;;;18.38;43.18;101330.59;6247386;22;46298;-71
2023/06/04 05:51:59;;;;;;;;;3.25;3.25;;;;;18.35;43.19;101328.06;6247365;22;45272;-71
2023/06/04 05:54:27;;;;;;;;;4.00;2.75;;;;;18.42;43.50;101347.53;6247008;22;45289;-71
2023/06/04 05:56:52;;;;;;;;;2.75;2.75;;;;;18.43;43.71;101352.84;6247118;22;45156;-72
2023/06/04 05:59:17;;;;;;;;;3.00;3.00;;;;;18.45;43.04;101364.44;6247289;22;45293;-71
2023/06/04 06:01:43;;;;;;;;;3.00;3.00;;;;;18.44;43.15;101359.13;6246651;22;45202;-71
2023/06/04 06:04:08;;;;;;;;;2.50;1.50;;;;;18.29;43.52;101336.50;6246889;22;45255;-71
2023/06/04 06:06:35;;;;;;;;;2.25;2.25;;;;;18.36;43.57;101346.03;6247263;22;45320;-71
2023/06/04 06:09:00;;;;;;;;;2.50;2.50;;;;;18.45;43.35;101360.88;6247009;22;45452;-71
2023/06/04 06:11:26;;;;;;;;;4.50;4.50;;;;;18.36;43.73;101346.03;6244969;22;45505;-71
2023/06/04 06:13:52;;;;;;;;;2.50;2.50;;;;;18.48;43.24;101364.28;6247673;22;45344;-71
2023/06/04 06:16:18;;;;;;;;;3.00;3.00;;;;;18.39;43.21;101362.06;6244993;22;45413;-78
2023/06/04 06:18:43;;;;;;;;;3.00;3.00;;;;;18.33;43.41;101341.66;6246529;22;47167;-80
2023/06/04 06:21:09;;;;;;;;;8.50;4.00;;;;;18.19;43.51;101316.38;6245146;22;45268;-81
2023/06/04 06:23:34;;;;;;;;;1.00;1.00;;;;;18.55;43.29;101377.47;6247090;22;45181;-83
2023/06/04 06:26:01;;;;;;;;;2.00;2.00;;;;;18.47;43.36;101365.22;6244767;22;45546;-84
2023/06/04 06:28:27;;;;;;;;;2.25;2.25;;;;;18.51;43.02;101366.81;6244756;22;47377;-84
2023/06/04 06:30:52;;;;;;;;;4.50;3.00;;;;;18.55;43.49;101377.47;6246986;22;45348;-84
2023/06/04 06:33:21;;;;;;;;;5.00;3.00;;;;;18.28;43.42;101343.75;6247056;22;45476;-85
2023/06/04 06:35:47;;;;;;;;;4.25;3.00;;;;;18.35;43.16;101354.25;6247153;22;45346;-85
2023/06/04 06:38:13;;;;;;;;;2.75;2.50;;;;;18.44;43.04;101367.22;6244507;22;47402;-80
2023/06/04 06:40:40;;;;;;;;;4.75;3.75;;;;;18.36;43.65;101354.16;6246154;22;45487;-80
2023/06/04 06:43:06;;;;;;;;;3.00;3.00;;;;;18.32;43.57;101344.44;6247117;22;45255;-82
2023/06/04 06:45:31;;;;;;;;;3.50;3.50;;;;;18.55;43.66;101386.44;6247063;22;45296;-82
2023/06/04 06:47:56;;;;;;;;;2.75;2.75;;;;;18.31;43.32;101323.81;6246264;22;49755;-83
2023/06/04 06:50:21;;;;;;;;;3.75;3.75;;;;;18.63;43.69;101378.75;6246993;22;45315;-82
2023/06/04 06:52:47;;;;;;;;;3.00;3.00;;;;;18.44;43.55;101337.50;6270477;22;45499;-82
2023/06/04 06:55:12;;;;;;;;;2.25;1.25;;;;;18.73;43.43;101378.22;6247186;22;45263;-83
2023/06/04 06:57:38;;;;;;;;;1.50;1.50;;;;;18.60;43.38;101351.03;6244027;22;48256;-82
2023/06/04 07:00:04;;;;;;;;;2.75;2.75;;;;;18.59;43.33;101344.72;6244404;22;45241;-83
2023/06/04 07:02:30;;;;;;;;;2.25;2.25;;;;;18.60;43.12;101346.50;6246644;22;45489;-83
2023/06/04 07:04:56;;;;;;;;;2.75;2.00;;;;;18.80;43.01;101366.13;6244778;22;45643;-83
2023/06/04 07:07:21;;;;;;;;;2.50;2.00;;;;;18.85;43.45;101373.03;6246365;22;46127;-83
2023/06/04 07:09:46;;;;;;;;;2.25;2.25;;;;;18.71;42.94;101337.78;6246954;22;45354;-83
2023/06/04 07:12:12;;;;;;;;;5.75;3.50;;;;;18.97;43.11;101370.59;6246984;22;45355;-83
2023/06/04 07:14:37;;;;;;;;;2.25;2.25;;;;;18.96;43.33;101371.53;6246850;22;45402;-83
2023/06/04 07:17:03;;;;;;;;;2.25;2.25;;;;;19.02;43.24;101371.19;6244080;22;47831;-71
2023/06/04 07:19:28;;;;;;;;;3.00;3.00;;;;;19.10;43.26;101379.75;6245126;22;45449;-70
2023/06/04 07:21:55;;;;;;;;;3.25;2.75;;;;;19.11;42.99;101380.59;6244213;22;45299;-71
2023/06/04 07:24:20;;;;;;;;;3.00;3.00;;;;;19.11;42.66;101377.91;6246080;22;45553;-71
2023/06/04 07:26:47;;;;;;;;;3.25;3.00;;;;;19.16;43.14;101378.50;6246697;22;45739;-71
2023/06/04 07:29:13;;;;;;;;;2.25;2.25;;;;;19.07;42.81;101366.41;6246717;22;45188;-71
2023/06/04 07:31:38;;;;;;;;;2.00;2.00;;;;;19.21;42.85;101371.00;6247122;22;45236;-71
2023/06/04 07:34:03;;;;;;;;;4.00;4.00;;;;;19.06;42.99;101343.88;6245020;22;45236;-71
2023/06/04 07:36:29;;;;;;;;;2.75;2.75;;;;;19.30;42.78;101375.88;6246765;22;45524;-71
2023/06/04 07:38:55;;;;;;;;;1.75;1.75;;;;;19.37;42.92;101376.38;6246478;22;45328;-71
2023/06/04 07:41:20;;;;;;;;;2.75;2.50;;;;;19.42;43.16;101372.44;6244778;22;45246;-71
2023/06/04 07:43:45;;;;;;;;;3.25;3.25;;;;;19.53;42.94;101387.16;6246731;22;45330;-71
2023/06/04 07:46:11;;;;;;;;;2.75;2.75;;;;;19.57;42.95;101378.75;6246324;22;48333;-71
2023/06/04 07:48:36;;;;;;;;;3.00;3.00;;;;;19.62;42.67;101368.53;6245605;22;45462;-71
2023/06/04 07:51:04;;;;;;;;;3.00;3.00;;;;;19.64;42.46;101365.72;6246047;22;45670;-72
2023/06/04 07:53:29;;;;;;;;;3.50;2.25;;;;;19.75;42.30;101374.09;6246073;22;45453;-71
2023/06/04 07:55:56;;;;;;;;;3.75;3.00;;;;;19.82;42.55;101368.31;6245508;22;46252;-71
2023/06/04 07:58:21;;;;;;;;;2.50;2.00;;;;;19.80;42.75;101353.03;6244331;22;45431;-71
2023/06/04 08:00:46;;;;;;;;;3.50;3.50;;;;;19.94;42.50;101360.28;6245438;22;45237;-71
2023/06/04 08:03:12;;;;;;;;;3.25;3.25;;;;;20.07;42.64;101363.13;6269490;22;45193;-70
2023/06/04 08:05:37;;;;;;;;;2.50;2.00;;;;;20.16;42.49;101364.38;6246125;22;45312;-70
2023/06/04 08:08:03;;;;;;;;;2.00;2.00;;;;;20.24;41.94;101364.75;6245561;22;45259;-71
2023/06/04 08:10:29;;;;;;;;;2.75;2.75;;;;;20.31;41.68;101360.72;6246294;22;45241;-71
2023/06/04 08:12:54;;;;;;;;;4.00;2.50;;;;;20.25;41.41;101350.25;6246128;22;45479;-71
2023/06/04 08:15:20;;;;;;;;;5.00;3.00;;;;;20.39;41.68;101353.91;6246222;22;45310;-71
2023/06/04 08:17:45;;;;;;;;;3.00;3.00;;;;;20.42;41.56;101354.59;6245863;22;45302;-71
2023/06/04 08:20:11;;;;;;;;;5.50;3.50;;;;;20.51;40.90;101344.97;6245704;22;45346;-71
2023/06/04 08:22:36;;;;;;;;;2.00;2.00;;;;;20.62;41.32;101364.16;6245042;22;45363;-71
2023/06/04 08:25:03;;;;;;;;;4.00;3.00;;;;;20.55;40.91;101339.28;6243903;22;47045;-71
2023/06/04 08:27:28;;;;;;;;;2.00;2.00;;;;;20.53;41.11;101327.66;6218637;22;45284;-71
2023/06/04 08:29:55;;;;;;;;;2.50;2.50;;;;;20.79;40.81;101360.38;6246654;22;45479;-71
2023/06/04 08:32:20;;;;;;;;;3.75;3.50;;;;;20.81;40.63;101349.41;6246642;22;45456;-71
2023/06/04 08:34:45;;;;;;;;;3.75;3.75;;;;;20.71;40.49;101322.00;6246893;22;45942;-71
2023/06/04 08:37:11;;;;;;;;;4.00;4.00;;;;;20.97;40.53;101358.28;6246312;22;45209;-77
2023/06/04 08:39:36;;;;;;;;;3.25;3.00;;;;;20.92;41.10;101342.31;6246829;22;45169;-76
2023/06/04 08:42:09;;;;;;;;;3.00;3.00;;;;;21.16;41.39;101357.91;6245824;22;45236;-73
2023/06/04 08:44:35;;;;;;;;;4.00;4.00;;;;;21.28;40.33;101361.63;6246251;22;46466;-70
2023/06/04 08:47:05;;;;;;;;;1.25;1.25;;;;;21.27;40.21;101338.19;6246215;22;45244;-69
2023/06/04 08:49:40;;;;;;;;;3.50;3.00;;;;;21.43;39.77;101354.31;6243288;22;45447;-71
2023/06/04 08:52:07;;;;;;;;;3.00;3.00;;;;;21.50;40.03;101357.50;6243881;22;45432;-71
2023/06/04 08:54:32;;;;;;;;;4.00;3.25;;;;;21.55;39.43;101350.78;6245696;22;45326;-71
2023/06/04 08:56:59;;;;;;;;;2.75;2.50;;;;;21.57;39.55;101342.53;6243142;22;45586;-71
2023/06/04 08:59:25;;;;;;;;;4.25;4.25;;;;;21.49;39.18;101325.91;6269679;22;45519;-71
2023/06/04 09:01:54;;;;;;;;;3.00;3.00;;;;;21.73;39.38;101345.03;6243738;22;45248;-72
2023/06/04 09:04:20;;;;;;;;;1.50;1.50;;;;;21.65;39.02;101330.16;6245517;22;46106;-71
2023/06/04 09:06:47;;;;;;;;;3.00;3.00;;;;;21.67;38.92;101318.28;6245670;22;45542;-71
2023/06/04 09:09:15;;;;;;;;;3.00;3.00;;;;;21.91;39.19;101345.59;6244098;22;45505;-71
2023/06/04 09:11:55;;;;;;;;;2.75;2.75;;;;;21.94;39.13;101335.38;6243440;22;45525;-69
2023/06/04 09:14:21;;;;;;;;;3.50;3.50;;;;;21.92;38.51;101331.91;6245081;22;45432;-70
2023/06/04 09:16:51;;;;;;;;;3.00;3.00;;;;;22.11;38.82;101341.47;6246269;22;45404;-70
2023/06/04 09:19:18;;;;;;;;;4.50;4.00;;;;;22.07;38.40;101326.34;6246501;22;45315;-71
2023/06/04 09:21:51;;;;;;;;;3.00;3.00;;;;;22.10;37.24;101335.16;6246371;22;45481;-70
2023/06/04 09:24:17;;;;;;;;;2.25;2.25;;;;;22.11;37.41;101331.44;6243898;22;47443;-71
2023/06/04 09:26:43;;;;;;;;;3.00;3.00;;;;;22.20;37.40;101338.06;6245710;22;45674;-70
2023/06/04 09:29:09;;;;;;;;;5.25;3.50;;;;;22.29;36.90;101339.31;6246537;22;45255;-70
2023/06/04 09:31:36;;;;;;;;;3.00;1.50;;;;;22.40;36.50;101339.38;6245795;22;45457;-72
2023/06/04 09:34:03;;;;;;;;;2.50;2.50;;;;;22.52;36.43;101340.31;6246045;22;46246;-71
2023/06/04 09:36:35;;;;;;;;;4.00;3.50;;;;;22.52;36.47;101321.28;6245825;22;45418;-71
2023/06/04 09:39:03;;;;;;;;;2.00;2.00;;;;;22.63;36.12;101348.56;6269914;22;45327;-70
2023/06/04 09:41:28;;;;;;;;;3.75;3.00;;;;;22.60;35.58;101337.91;6243403;22;45591;-71
2023/06/04 09:44:04;;;;;;;;;2.50;2.50;;;;;22.48;34.66;101315.19;6243761;22;47343;-71
2023/06/04 09:46:30;;;;;;;;;4.00;2.50;;;;;22.70;34.65;101347.16;6245537;22;45505;-71
2023/06/04 09:49:04;;;;;;;;;3.00;3.00;;;;;22.63;34.90;101329.53;6246184;22;45328;-71
2023/06/04 09:51:30;;;;;;;;;2.50;2.25;;;;;22.80;35.22;101355.47;6246144;22;45219;-70
2023/06/04 09:54:01;;;;;;;;;3.00;2.25;;;;;22.65;35.03;101319.38;6243481;22;47040;-72
2023/06/04 09:56:27;;;;;;;;;3.75;3.75;;;;;22.84;34.51;101348.00;6245405;22;45317;-71
2023/06/04 09:59:00;;;;;;;;;3.50;3.50;;;;;22.72;34.77;101312.53;6245777;22;45370;-70
2023/06/04 10:01:28;;;;;;;;;4.00;4.00;;;;;22.92;34.68;101343.69;6244964;22;45338;-70
2023/06/04 10:03:55;;;;;;;;;4.00;2.75;;;;;22.89;34.76;101333.03;6245389;22;46398;-70
2023/06/04 10:06:21;;;;;;;;;4.50;3.50;;;;;22.87;34.75;101326.84;6243726;22;45558;-70
2023/06/04 10:08:49;;;;;;;;;3.25;2.50;;;;;23.10;34.51;101351.47;6245750;22;45262;-70
2023/06/04 10:11:21;;;;;;;;;3.00;3.00;;;;;23.15;33.39;101354.72;6244893;22;45422;-70
2023/06/04 10:14:15;;;;;;;;;4.25;3.50;;;;;23.28;34.10;101352.81;6246878;22;45605;-70
2023/06/04 10:16:42;;;;;;;;;2.50;2.50;;;;;23.28;33.43;101351.94;6246403;22;45243;-70
2023/06/04 10:19:08;;;;;;;;;2.25;1.00;;;;;23.34;33.00;101356.03;6245741;22;45508;-74
2023/06/04 10:21:37;;;;;;;;;2.00;2.00;;;;;23.21;33.04;101326.16;6218865;22;45294;-74
2023/06/04 10:24:03;;;;;;;;;4.00;3.00;;;;;23.30;33.60;101331.78;6243807;22;47131;-74
2023/06/04 10:26:30;;;;;;;;;4.50;2.00;;;;;23.42;33.11;101345.41;6246142;22;45480;-74
2023/06/04 10:28:57;;;;;;;;;4.00;3.00;;;;;23.36;33.08;101324.97;6247005;22;45461;-74
2023/06/04 10:31:23;;;;;;;;;3.25;3.00;;;;;23.37;33.11;101325.84;6247094;22;45537;-75
2023/06/04 10:33:54;;;;;;;;;2.00;2.00;;;;;23.54;33.06;101358.13;6247254;22;45181;-75
2023/06/04 10:36:21;;;;;;;;;2.50;2.50;;;;;23.40;32.49;101331.06;6245344;22;45426;-75
2023/06/04 10:38:55;;;;;;;;;3.75;2.75;;;;;23.55;32.56;101340.75;6246767;22;45254;-74
2023/06/04 10:41:22;;;;;;;;;3.00;2.00;;;;;23.52;32.95;101326.50;6247191;22;45298;-75
2023/06/04 10:43:49;;;;;;;;;4.25;4.00;;;;;23.51;31.92;101316.63;6246805;22;45286;-74
2023/06/04 10:46:17;;;;;;;;;3.00;3.00;;;;;23.57;31.65;101332.47;6244940;22;45562;-74
2023/06/04 10:48:50;;;;;;;;;4.00;3.00;;;;;23.62;31.85;101336.59;6246255;22;45389;-74
2023/06/04 10:51:29;;;;;;;;;2.25;2.25;;;;;23.64;32.09;101325.56;6245811;22;45659;-75
2023/06/04 10:53:55;;;;;;;;;3.25;2.75;;;;;23.74;31.65;101336.59;6243499;22;45673;-75
2023/06/04 10:56:31;;;;;;;;;2.50;2.50;;;;;23.84;32.23;101351.28;6244676;22;45305;-74
2023/06/04 10:58:57;;;;;;;;;4.25;4.00;;;;;23.88;31.83;101355.50;6246353;22;45445;-75
2023/06/04 11:01:28;;;;;;;;;3.00;3.00;;;;;23.93;31.73;101346.97;6246507;22;45448;-75
2023/06/04 11:03:55;;;;;;;;;4.25;3.75;;;;;23.90;31.36;101337.16;6245410;22;46822;-74
2023/06/04 11:06:21;;;;;;;;;3.50;2.00;;;;;23.87;31.92;101329.22;6244666;22;45658;-74
2023/06/04 11:08:47;;;;;;;;;3.00;3.00;;;;;23.81;31.10;101313.34;6246398;22;45209;-74
2023/06/04 11:11:15;;;;;;;;;3.00;3.00;;;;;23.98;31.35;101326.50;6246056;22;45408;-74
2023/06/04 11:13:42;;;;;;;;;2.00;2.00;;;;;23.97;31.37;101323.91;6246628;22;46152;-74
2023/06/04 11:16:17;;;;;;;;;3.25;3.25;;;;;23.93;31.73;101331.47;6245689;22;45256;-75
2023/06/04 11:18:43;;;;;;;;;3.00;3.00;;;;;24.10;30.82;101359.25;6246442;22;45272;-75
2023/06/04 11:21:11;;;;;;;;;3.50;3.00;;;;;24.13;31.16;101354.41;6244143;22;45407;-75
2023/06/04 11:23:36;;;;;;;;;3.75;3.50;;;;;24.17;31.56;101342.28;6243472;22;46919;-75